Terminal Aerodrome Forecast
Issued by NWS

Home | Current Version | Previous Version | Text Only | Print | Product List | Glossary On
Versions: 1 2 3 4 5 6 7 8 9 10 11 12 13 14 15 16 17 18 19 20 21 22
000
FTUS46 KOTX 190531
TAFSFF
TAF
KSFF 190531Z 1906/2006 24007KT P6SM SCT100 BKN120
     FM190900 22005KT P6SM SCT015 BKN150
     FM191700 23008KT P6SM SCT150
     FM200300 VRB02KT P6SM SCT200=

USA.gov is the U.S. government's official web portal to all federal, state and local government web resources and services.